sensor_id;sensor_type;location;lat;lon;timestamp;temperature;humidity
18321;DHT22;54904;54.350;18.664;2023-08-21T00:02:16;24.20;99.90
18321;DHT22;54904;54.350;18.664;2023-08-21T00:04:44;24.20;99.90
18321;DHT22;54904;54.350;18.664;2023-08-21T00:07:11;24.20;99.90
18321;DHT22;54904;54.350;18.664;2023-08-21T00:09:38;24.10;99.90
18321;DHT22;54904;54.350;18.664;2023-08-21T00:12:06;24.10;99.90
18321;DHT22;54904;54.350;18.664;2023-08-21T00:14:33;24.10;99.90
18321;DHT22;54904;54.350;18.664;2023-08-21T00:17:02;24.10;99.90
18321;DHT22;54904;54.350;18.664;2023-08-21T00:19:30;24.10;99.90
18321;DHT22;54904;54.350;18.664;2023-08-21T00:21:57;24.10;99.90
18321;DHT22;54904;54.350;18.664;2023-08-21T00:24:24;24.10;99.90
18321;DHT22;54904;54.350;18.664;2023-08-21T00:26:51;24.10;99.90
18321;DHT22;54904;54.350;18.664;2023-08-21T00:29:18;24.10;99.90
18321;DHT22;54904;54.350;18.664;2023-08-21T00:31:46;24.10;99.90
18321;DHT22;54904;54.350;18.664;2023-08-21T00:34:14;24.10;99.90
18321;DHT22;54904;54.350;18.664;2023-08-21T00:36:42;24.00;99.90
18321;DHT22;54904;54.350;18.664;2023-08-21T00:39:09;24.00;99.90
18321;DHT22;54904;54.350;18.664;2023-08-21T00:41:36;24.00;99.90
18321;DHT22;54904;54.350;18.664;2023-08-21T00:44:03;24.00;99.90
18321;DHT22;54904;54.350;18.664;2023-08-21T00:46:31;24.00;99.90
18321;DHT22;54904;54.350;18.664;2023-08-21T00:48:58;24.00;99.90
18321;DHT22;54904;54.350;18.664;2023-08-21T00:51:28;23.90;99.90
18321;DHT22;54904;54.350;18.664;2023-08-21T00:53:56;23.90;99.90
18321;DHT22;54904;54.350;18.664;2023-08-21T00:56:24;23.90;99.90
18321;DHT22;54904;54.350;18.664;2023-08-21T00:58:51;23.90;99.90
18321;DHT22;54904;54.350;18.664;2023-08-21T01:04:00;23.90;99.90
18321;DHT22;54904;54.350;18.664;2023-08-21T01:06:28;23.90;99.90
18321;DHT22;54904;54.350;18.664;2023-08-21T01:09:00;23.80;99.90
18321;DHT22;54904;54.350;18.664;2023-08-21T01:11:38;23.80;99.90
18321;DHT22;54904;54.350;18.664;2023-08-21T01:14:13;23.80;99.90
18321;DHT22;54904;54.350;18.664;2023-08-21T01:16:44;23.70;99.90
18321;DHT22;54904;54.350;18.664;2023-08-21T01:19:21;23.70;99.90
18321;DHT22;54904;54.350;18.664;2023-08-21T01:21:53;23.70;99.90
18321;DHT22;54904;54.350;18.664;2023-08-21T01:24:21;23.70;99.90
18321;DHT22;54904;54.350;18.664;2023-08-21T01:26:48;23.60;99.90
18321;DHT22;54904;54.350;18.664;2023-08-21T01:29:15;23.60;99.90
18321;DHT22;54904;54.350;18.664;2023-08-21T01:31:47;23.60;99.90
18321;DHT22;54904;54.350;18.664;2023-08-21T01:34:17;23.60;99.90
18321;DHT22;54904;54.350;18.664;2023-08-21T01:36:45;23.60;99.90
18321;DHT22;54904;54.350;18.664;2023-08-21T01:39:12;23.60;99.90
18321;DHT22;54904;54.350;18.664;2023-08-21T01:41:42;23.50;99.90
18321;DHT22;54904;54.350;18.664;2023-08-21T01:44:09;23.60;99.90
18321;DHT22;54904;54.350;18.664;2023-08-21T01:46:36;23.60;99.90
18321;DHT22;54904;54.350;18.664;2023-08-21T01:49:03;23.50;99.90
18321;DHT22;54904;54.350;18.664;2023-08-21T01:51:30;23.50;99.90
18321;DHT22;54904;54.350;18.664;2023-08-21T01:53:57;23.60;99.90
18321;DHT22;54904;54.350;18.664;2023-08-21T01:56:24;23.50;99.90
18321;DHT22;54904;54.350;18.664;2023-08-21T01:58:53;23.50;99.90
18321;DHT22;54904;54.350;18.664;2023-08-21T02:01:20;23.60;99.90
18321;DHT22;54904;54.350;18.664;2023-08-21T02:03:47;23.60;99.90
18321;DHT22;54904;54.350;18.664;2023-08-21T02:06:14;23.50;99.90
18321;DHT22;54904;54.350;18.664;2023-08-21T02:08:41;23.50;99.90
18321;DHT22;54904;54.350;18.664;2023-08-21T02:11:08;23.50;99.90
18321;DHT22;54904;54.350;18.664;2023-08-21T02:13:35;23.40;99.90
18321;DHT22;54904;54.350;18.664;2023-08-21T02:16:04;23.40;99.90
18321;DHT22;54904;54.350;18.664;2023-08-21T02:18:31;23.40;99.90
18321;DHT22;54904;54.350;18.664;2023-08-21T02:20:59;23.40;99.90
18321;DHT22;54904;54.350;18.664;2023-08-21T02:23:26;23.30;99.90
18321;DHT22;54904;54.350;18.664;2023-08-21T02:25:54;23.30;99.90
18321;DHT22;54904;54.350;18.664;2023-08-21T02:28:22;23.30;99.90
18321;DHT22;54904;54.350;18.664;2023-08-21T02:30:49;23.20;99.90
18321;DHT22;54904;54.350;18.664;2023-08-21T02:33:17;23.20;99.90
18321;DHT22;54904;54.350;18.664;2023-08-21T02:35:44;23.10;99.90
18321;DHT22;54904;54.350;18.664;2023-08-21T02:38:11;23.00;99.90
18321;DHT22;54904;54.350;18.664;2023-08-21T02:40:38;23.00;99.90
18321;DHT22;54904;54.350;18.664;2023-08-21T02:43:05;23.00;99.90
18321;DHT22;54904;54.350;18.664;2023-08-21T02:45:32;23.00;99.90
18321;DHT22;54904;54.350;18.664;2023-08-21T02:47:59;22.90;99.90
18321;DHT22;54904;54.350;18.664;2023-08-21T02:50:28;22.90;99.90
18321;DHT22;54904;54.350;18.664;2023-08-21T02:52:55;22.80;99.90
18321;DHT22;54904;54.350;18.664;2023-08-21T02:55:22;22.90;99.90
18321;DHT22;54904;54.350;18.664;2023-08-21T02:57:49;22.80;99.90
18321;DHT22;54904;54.350;18.664;2023-08-21T03:00:16;22.80;99.90
18321;DHT22;54904;54.350;18.664;2023-08-21T03:02:43;22.70;99.90
18321;DHT22;54904;54.350;18.664;2023-08-21T03:05:11;22.70;99.90
18321;DHT22;54904;54.350;18.664;2023-08-21T03:07:40;22.70;99.90
18321;DHT22;54904;54.350;18.664;2023-08-21T03:10:08;22.60;99.90
18321;DHT22;54904;54.350;18.664;2023-08-21T03:12:35;22.50;99.90
18321;DHT22;54904;54.350;18.664;2023-08-21T03:15:03;22.50;99.90
18321;DHT22;54904;54.350;18.664;2023-08-21T03:17:31;22.40;99.90
18321;DHT22;54904;54.350;18.664;2023-08-21T03:19:58;22.30;99.90
18321;DHT22;54904;54.350;18.664;2023-08-21T03:22:25;22.30;99.90
18321;DHT22;54904;54.350;18.664;2023-08-21T03:24:54;22.20;99.90
18321;DHT22;54904;54.350;18.664;2023-08-21T03:27:22;22.20;99.90
18321;DHT22;54904;54.350;18.664;2023-08-21T03:29:50;22.10;99.90
18321;DHT22;54904;54.350;18.664;2023-08-21T03:32:18;22.10;99.90
18321;DHT22;54904;54.350;18.664;2023-08-21T03:34:46;22.00;99.90
18321;DHT22;54904;54.350;18.664;2023-08-21T03:37:13;22.00;99.90
18321;DHT22;54904;54.350;18.664;2023-08-21T03:39:40;22.00;99.90
18321;DHT22;54904;54.350;18.664;2023-08-21T03:42:11;22.00;99.90
18321;DHT22;54904;54.350;18.664;2023-08-21T03:44:39;22.00;99.90
18321;DHT22;54904;54.350;18.664;2023-08-21T03:47:07;22.00;99.90
18321;DHT22;54904;54.350;18.664;2023-08-21T03:49:42;22.00;99.90
18321;DHT22;54904;54.350;18.664;2023-08-21T03:52:09;22.00;99.90
18321;DHT22;54904;54.350;18.664;2023-08-21T03:54:36;22.00;99.90
18321;DHT22;54904;54.350;18.664;2023-08-21T03:57:04;22.00;99.90
18321;DHT22;54904;54.350;18.664;2023-08-21T03:59:32;22.00;99.90
18321;DHT22;54904;54.350;18.664;2023-08-21T04:02:00;22.00;99.90
18321;DHT22;54904;54.350;18.664;2023-08-21T04:04:28;22.00;99.90
18321;DHT22;54904;54.350;18.664;2023-08-21T04:06:55;22.00;99.90
18321;DHT22;54904;54.350;18.664;2023-08-21T04:09:22;22.00;99.90
18321;DHT22;54904;54.350;18.664;2023-08-21T04:11:50;22.00;99.90
18321;DHT22;54904;54.350;18.664;2023-08-21T04:14:17;22.00;99.90
18321;DHT22;54904;54.350;18.664;2023-08-21T04:16:45;21.90;99.90
18321;DHT22;54904;54.350;18.664;2023-08-21T04:19:12;21.90;99.90
18321;DHT22;54904;54.350;18.664;2023-08-21T04:21:39;21.90;99.90
18321;DHT22;54904;54.350;18.664;2023-08-21T04:24:06;21.90;99.90
18321;DHT22;54904;54.350;18.664;2023-08-21T04:26:33;21.90;99.90
18321;DHT22;54904;54.350;18.664;2023-08-21T04:29:00;21.90;99.90
18321;DHT22;54904;54.350;18.664;2023-08-21T04:31:29;21.90;99.90
18321;DHT22;54904;54.350;18.664;2023-08-21T04:33:57;21.90;99.90
18321;DHT22;54904;54.350;18.664;2023-08-21T04:36:25;21.90;99.90
18321;DHT22;54904;54.350;18.664;2023-08-21T04:38:52;21.90;99.90
18321;DHT22;54904;54.350;18.664;2023-08-21T04:41:20;21.90;99.90
18321;DHT22;54904;54.350;18.664;2023-08-21T04:43:47;21.90;99.90
18321;DHT22;54904;54.350;18.664;2023-08-21T04:46:14;21.90;99.90
18321;DHT22;54904;54.350;18.664;2023-08-21T04:48:44;21.90;99.90
18321;DHT22;54904;54.350;18.664;2023-08-21T04:51:13;21.90;99.90
18321;DHT22;54904;54.350;18.664;2023-08-21T04:53:41;21.90;99.90
18321;DHT22;54904;54.350;18.664;2023-08-21T04:56:12;21.90;99.90
18321;DHT22;54904;54.350;18.664;2023-08-21T04:58:39;22.00;99.90
18321;DHT22;54904;54.350;18.664;2023-08-21T05:01:08;22.00;99.90
18321;DHT22;54904;54.350;18.664;2023-08-21T05:03:39;22.00;99.90
18321;DHT22;54904;54.350;18.664;2023-08-21T05:06:06;22.00;99.90
18321;DHT22;54904;54.350;18.664;2023-08-21T05:08:35;22.00;99.90
18321;DHT22;54904;54.350;18.664;2023-08-21T05:11:05;22.00;99.90
18321;DHT22;54904;54.350;18.664;2023-08-21T05:13:35;22.10;99.90
18321;DHT22;54904;54.350;18.664;2023-08-21T05:16:05;22.00;99.90
18321;DHT22;54904;54.350;18.664;2023-08-21T05:18:35;22.10;99.90
18321;DHT22;54904;54.350;18.664;2023-08-21T05:21:04;22.00;99.90
18321;DHT22;54904;54.350;18.664;2023-08-21T05:23:31;22.00;99.90
18321;DHT22;54904;54.350;18.664;2023-08-21T05:26:06;22.10;99.90
18321;DHT22;54904;54.350;18.664;2023-08-21T05:28:33;22.10;99.90
18321;DHT22;54904;54.350;18.664;2023-08-21T05:31:00;22.00;99.90
18321;DHT22;54904;54.350;18.664;2023-08-21T05:33:35;22.10;99.90
18321;DHT22;54904;54.350;18.664;2023-08-21T05:36:02;22.10;99.90
18321;DHT22;54904;54.350;18.664;2023-08-21T05:38:29;22.10;99.90
18321;DHT22;54904;54.350;18.664;2023-08-21T05:40:56;22.10;99.90
18321;DHT22;54904;54.350;18.664;2023-08-21T05:43:25;22.10;99.90
18321;DHT22;54904;54.350;18.664;2023-08-21T05:45:53;22.20;99.90
18321;DHT22;54904;54.350;18.664;2023-08-21T05:48:21;22.20;99.90
18321;DHT22;54904;54.350;18.664;2023-08-21T05:50:50;22.20;99.90
18321;DHT22;54904;54.350;18.664;2023-08-21T05:53:18;22.30;99.90
18321;DHT22;54904;54.350;18.664;2023-08-21T05:55:45;22.30;99.90
18321;DHT22;54904;54.350;18.664;2023-08-21T05:58:12;22.30;99.90
18321;DHT22;54904;54.350;18.664;2023-08-21T06:00:40;22.30;99.90
18321;DHT22;54904;54.350;18.664;2023-08-21T06:03:08;22.40;99.90
18321;DHT22;54904;54.350;18.664;2023-08-21T06:06:01;22.40;99.90
18321;DHT22;54904;54.350;18.664;2023-08-21T06:08:28;22.40;99.90
18321;DHT22;54904;54.350;18.664;2023-08-21T06:10:55;22.50;99.90
18321;DHT22;54904;54.350;18.664;2023-08-21T06:13:22;22.50;99.90
18321;DHT22;54904;54.350;18.664;2023-08-21T06:15:53;22.50;99.90
18321;DHT22;54904;54.350;18.664;2023-08-21T06:18:22;22.50;99.90
18321;DHT22;54904;54.350;18.664;2023-08-21T06:20:49;22.50;99.90
18321;DHT22;54904;54.350;18.664;2023-08-21T06:23:19;22.50;99.90
18321;DHT22;54904;54.350;18.664;2023-08-21T06:25:47;22.60;99.90
18321;DHT22;54904;54.350;18.664;2023-08-21T06:28:15;22.70;99.90
18321;DHT22;54904;54.350;18.664;2023-08-21T06:30:42;22.80;99.90
18321;DHT22;54904;54.350;18.664;2023-08-21T06:33:12;22.80;99.90
18321;DHT22;54904;54.350;18.664;2023-08-21T06:35:39;22.90;99.90
18321;DHT22;54904;54.350;18.664;2023-08-21T06:38:06;23.00;99.90
18321;DHT22;54904;54.350;18.664;2023-08-21T06:40:34;23.00;99.90
18321;DHT22;54904;54.350;18.664;2023-08-21T06:43:01;23.10;99.90
18321;DHT22;54904;54.350;18.664;2023-08-21T06:45:33;23.10;99.90
18321;DHT22;54904;54.350;18.664;2023-08-21T06:48:03;23.20;99.90
18321;DHT22;54904;54.350;18.664;2023-08-21T06:50:32;23.30;99.90
18321;DHT22;54904;54.350;18.664;2023-08-21T06:52:59;23.30;99.90
18321;DHT22;54904;54.350;18.664;2023-08-21T06:55:26;23.30;99.90
18321;DHT22;54904;54.350;18.664;2023-08-21T06:57:53;23.40;99.90
18321;DHT22;54904;54.350;18.664;2023-08-21T07:00:20;23.40;99.90
18321;DHT22;54904;54.350;18.664;2023-08-21T07:02:47;23.40;99.90
18321;DHT22;54904;54.350;18.664;2023-08-21T07:05:15;23.50;99.90
18321;DHT22;54904;54.350;18.664;2023-08-21T07:07:43;23.50;99.90
18321;DHT22;54904;54.350;18.664;2023-08-21T07:10:10;23.40;99.90
18321;DHT22;54904;54.350;18.664;2023-08-21T07:12:37;23.50;99.90
18321;DHT22;54904;54.350;18.664;2023-08-21T07:15:05;23.50;99.90
18321;DHT22;54904;54.350;18.664;2023-08-21T07:17:32;23.50;99.90
18321;DHT22;54904;54.350;18.664;2023-08-21T07:19:59;23.40;99.90
18321;DHT22;54904;54.350;18.664;2023-08-21T07:22:27;23.40;99.90
18321;DHT22;54904;54.350;18.664;2023-08-21T07:24:56;23.40;99.90
18321;DHT22;54904;54.350;18.664;2023-08-21T07:27:23;23.40;99.90
18321;DHT22;54904;54.350;18.664;2023-08-21T07:29:50;23.40;99.90
18321;DHT22;54904;54.350;18.664;2023-08-21T07:32:17;23.60;99.90
18321;DHT22;54904;54.350;18.664;2023-08-21T07:34:44;23.60;99.90
18321;DHT22;54904;54.350;18.664;2023-08-21T07:37:11;23.70;99.90
18321;DHT22;54904;54.350;18.664;2023-08-21T07:39:38;23.80;99.90
18321;DHT22;54904;54.350;18.664;2023-08-21T07:42:07;23.90;99.90
18321;DHT22;54904;54.350;18.664;2023-08-21T07:44:34;24.00;99.90
18321;DHT22;54904;54.350;18.664;2023-08-21T07:47:01;24.10;99.90
18321;DHT22;54904;54.350;18.664;2023-08-21T07:49:28;24.20;99.90
18321;DHT22;54904;54.350;18.664;2023-08-21T07:51:55;24.30;99.90
18321;DHT22;54904;54.350;18.664;2023-08-21T07:54:22;24.40;99.90
18321;DHT22;54904;54.350;18.664;2023-08-21T07:56:49;24.40;99.90
18321;DHT22;54904;54.350;18.664;2023-08-21T07:59:18;24.40;99.90
18321;DHT22;54904;54.350;18.664;2023-08-21T08:01:45;24.50;99.90
18321;DHT22;54904;54.350;18.664;2023-08-21T08:04:12;24.50;99.90
18321;DHT22;54904;54.350;18.664;2023-08-21T08:06:40;24.50;99.90
18321;DHT22;54904;54.350;18.664;2023-08-21T08:09:08;24.50;99.90
18321;DHT22;54904;54.350;18.664;2023-08-21T08:11:35;24.60;99.90
18321;DHT22;54904;54.350;18.664;2023-08-21T08:14:02;24.70;99.90
18321;DHT22;54904;54.350;18.664;2023-08-21T08:16:30;24.80;99.90
18321;DHT22;54904;54.350;18.664;2023-08-21T08:18:57;24.90;99.90
18321;DHT22;54904;54.350;18.664;2023-08-21T08:21:24;25.00;99.90
18321;DHT22;54904;54.350;18.664;2023-08-21T08:23:51;25.00;99.90
18321;DHT22;54904;54.350;18.664;2023-08-21T08:26:18;25.10;99.90
18321;DHT22;54904;54.350;18.664;2023-08-21T08:28:45;25.10;99.90
18321;DHT22;54904;54.350;18.664;2023-08-21T08:31:16;25.20;99.90
18321;DHT22;54904;54.350;18.664;2023-08-21T08:33:45;25.20;99.90
18321;DHT22;54904;54.350;18.664;2023-08-21T08:36:13;25.20;99.90
18321;DHT22;54904;54.350;18.664;2023-08-21T08:38:41;25.30;99.90
18321;DHT22;54904;54.350;18.664;2023-08-21T08:41:14;25.40;99.90
18321;DHT22;54904;54.350;18.664;2023-08-21T08:43:44;25.40;99.90
18321;DHT22;54904;54.350;18.664;2023-08-21T08:46:11;25.50;99.90
18321;DHT22;54904;54.350;18.664;2023-08-21T08:48:39;25.50;99.90
18321;DHT22;54904;54.350;18.664;2023-08-21T08:51:08;25.60;99.90
18321;DHT22;54904;54.350;18.664;2023-08-21T08:53:36;25.70;99.90
18321;DHT22;54904;54.350;18.664;2023-08-21T08:56:03;25.70;99.90
18321;DHT22;54904;54.350;18.664;2023-08-21T08:58:31;25.70;99.90
18321;DHT22;54904;54.350;18.664;2023-08-21T09:00:58;25.80;99.90
18321;DHT22;54904;54.350;18.664;2023-08-21T09:03:26;25.90;99.90
18321;DHT22;54904;54.350;18.664;2023-08-21T09:05:53;26.00;99.90
18321;DHT22;54904;54.350;18.664;2023-08-21T09:08:22;26.10;99.90
18321;DHT22;54904;54.350;18.664;2023-08-21T09:10:49;26.10;99.90
18321;DHT22;54904;54.350;18.664;2023-08-21T09:13:18;26.10;99.90
18321;DHT22;54904;54.350;18.664;2023-08-21T09:15:46;26.10;99.90
18321;DHT22;54904;54.350;18.664;2023-08-21T09:18:14;26.10;99.90
18321;DHT22;54904;54.350;18.664;2023-08-21T09:20:41;26.20;99.90
18321;DHT22;54904;54.350;18.664;2023-08-21T09:23:13;26.30;99.90
18321;DHT22;54904;54.350;18.664;2023-08-21T09:25:44;26.30;99.90
18321;DHT22;54904;54.350;18.664;2023-08-21T09:28:13;26.40;99.90
18321;DHT22;54904;54.350;18.664;2023-08-21T09:30:48;26.40;99.80
18321;DHT22;54904;54.350;18.664;2023-08-21T09:33:17;26.40;99.70
18321;DHT22;54904;54.350;18.664;2023-08-21T09:35:45;26.40;99.60
18321;DHT22;54904;54.350;18.664;2023-08-21T09:38:12;26.50;99.50
18321;DHT22;54904;54.350;18.664;2023-08-21T09:40:42;26.60;99.10
18321;DHT22;54904;54.350;18.664;2023-08-21T09:43:10;26.70;99.00
18321;DHT22;54904;54.350;18.664;2023-08-21T09:45:38;26.70;98.90
18321;DHT22;54904;54.350;18.664;2023-08-21T09:48:06;26.80;98.70
18321;DHT22;54904;54.350;18.664;2023-08-21T09:50:34;26.80;98.50
18321;DHT22;54904;54.350;18.664;2023-08-21T09:53:03;26.80;98.30
18321;DHT22;54904;54.350;18.664;2023-08-21T09:55:32;26.90;98.10
18321;DHT22;54904;54.350;18.664;2023-08-21T09:58:01;26.90;97.80
18321;DHT22;54904;54.350;18.664;2023-08-21T10:00:33;27.00;97.40
18321;DHT22;54904;54.350;18.664;2023-08-21T10:03:02;27.10;97.50
18321;DHT22;54904;54.350;18.664;2023-08-21T10:05:30;27.10;97.30
18321;DHT22;54904;54.350;18.664;2023-08-21T10:08:00;27.20;97.00
18321;DHT22;54904;54.350;18.664;2023-08-21T10:10:30;27.20;96.80
18321;DHT22;54904;54.350;18.664;2023-08-21T10:12:58;27.20;96.70
18321;DHT22;54904;54.350;18.664;2023-08-21T10:15:28;27.30;96.60
18321;DHT22;54904;54.350;18.664;2023-08-21T10:17:55;27.30;96.60
18321;DHT22;54904;54.350;18.664;2023-08-21T10:20:25;27.50;96.50
18321;DHT22;54904;54.350;18.664;2023-08-21T10:22:54;27.50;96.30
18321;DHT22;54904;54.350;18.664;2023-08-21T10:25:22;27.60;96.00
18321;DHT22;54904;54.350;18.664;2023-08-21T10:27:52;27.70;95.70
18321;DHT22;54904;54.350;18.664;2023-08-21T10:30:21;27.70;95.50
18321;DHT22;54904;54.350;18.664;2023-08-21T10:32:51;27.70;95.30
18321;DHT22;54904;54.350;18.664;2023-08-21T10:35:20;27.80;94.90
18321;DHT22;54904;54.350;18.664;2023-08-21T10:38:07;27.80;94.50
18321;DHT22;54904;54.350;18.664;2023-08-21T10:40:34;27.80;94.50
18321;DHT22;54904;54.350;18.664;2023-08-21T10:43:01;27.80;94.40
18321;DHT22;54904;54.350;18.664;2023-08-21T10:45:29;27.80;94.30
18321;DHT22;54904;54.350;18.664;2023-08-21T10:47:59;27.80;94.30
18321;DHT22;54904;54.350;18.664;2023-08-21T10:50:26;27.80;94.20
18321;DHT22;54904;54.350;18.664;2023-08-21T10:52:53;27.90;94.00
18321;DHT22;54904;54.350;18.664;2023-08-21T10:55:21;28.00;93.80
18321;DHT22;54904;54.350;18.664;2023-08-21T10:57:49;28.00;93.80
18321;DHT22;54904;54.350;18.664;2023-08-21T11:00:17;28.00;93.90
18321;DHT22;54904;54.350;18.664;2023-08-21T11:02:45;27.90;93.80
18321;DHT22;54904;54.350;18.664;2023-08-21T11:05:15;27.80;93.90
18321;DHT22;54904;54.350;18.664;2023-08-21T11:07:43;27.80;94.00
18321;DHT22;54904;54.350;18.664;2023-08-21T11:10:12;27.70;94.00
18321;DHT22;54904;54.350;18.664;2023-08-21T11:12:49;27.50;93.80
18321;DHT22;54904;54.350;18.664;2023-08-21T11:15:17;27.50;93.80
18321;DHT22;54904;54.350;18.664;2023-08-21T11:17:51;27.50;93.80
18321;DHT22;54904;54.350;18.664;2023-08-21T11:20:20;27.50;93.50
18321;DHT22;54904;54.350;18.664;2023-08-21T11:22:47;27.50;93.30
18321;DHT22;54904;54.350;18.664;2023-08-21T11:25:14;27.50;93.20
18321;DHT22;54904;54.350;18.664;2023-08-21T11:27:42;27.50;93.10
18321;DHT22;54904;54.350;18.664;2023-08-21T11:30:11;27.50;93.00
